sensor_id;sensor_type;location;lat;lon;timestamp;P1;durP1;ratioP1;P2;durP2;ratioP2
74791;SDS011;63319;46.046;17.802;2022-11-04T00:01:22;26.83;;;13.60;;
74791;SDS011;63319;46.046;17.802;2022-11-04T00:04:26;33.92;;;16.70;;
74791;SDS011;63319;46.046;17.802;2022-11-04T00:07:30;35.22;;;16.40;;
74791;SDS011;63319;46.046;17.802;2022-11-04T00:10:56;30.90;;;16.10;;
74791;SDS011;63319;46.046;17.802;2022-11-04T00:14:19;33.43;;;15.70;;
74791;SDS011;63319;46.046;17.802;2022-11-04T00:17:22;33.20;;;16.50;;
74791;SDS011;63319;46.046;17.802;2022-11-04T00:20:25;31.20;;;15.45;;
74791;SDS011;63319;46.046;17.802;2022-11-04T00:23:46;29.40;;;15.10;;
74791;SDS011;63319;46.046;17.802;2022-11-04T00:27:16;32.67;;;16.20;;
74791;SDS011;63319;46.046;17.802;2022-11-04T00:30:39;31.23;;;15.37;;
74791;SDS011;63319;46.046;17.802;2022-11-04T00:33:42;32.75;;;16.80;;
74791;SDS011;63319;46.046;17.802;2022-11-04T00:36:45;34.38;;;17.38;;
74791;SDS011;63319;46.046;17.802;2022-11-04T00:39:47;33.67;;;16.40;;
74791;SDS011;63319;46.046;17.802;2022-11-04T00:42:50;33.08;;;16.55;;
74791;SDS011;63319;46.046;17.802;2022-11-04T00:45:56;31.53;;;15.77;;
74791;SDS011;63319;46.046;17.802;2022-11-04T00:48:59;34.67;;;16.63;;
74791;SDS011;63319;46.046;17.802;2022-11-04T00:52:02;38.20;;;16.38;;
74791;SDS011;63319;46.046;17.802;2022-11-04T00:55:05;30.80;;;16.63;;
74791;SDS011;63319;46.046;17.802;2022-11-04T00:58:08;32.88;;;16.90;;
74791;SDS011;63319;46.046;17.802;2022-11-04T01:01:13;35.00;;;17.93;;
74791;SDS011;63319;46.046;17.802;2022-11-04T01:04:19;32.15;;;16.27;;
74791;SDS011;63319;46.046;17.802;2022-11-04T01:07:22;31.52;;;16.08;;
74791;SDS011;63319;46.046;17.802;2022-11-04T01:10:28;28.85;;;16.17;;
74791;SDS011;63319;46.046;17.802;2022-11-04T01:13:31;31.90;;;16.25;;
74791;SDS011;63319;46.046;17.802;2022-11-04T01:16:34;32.67;;;15.93;;
74791;SDS011;63319;46.046;17.802;2022-11-04T01:19:37;29.38;;;16.35;;
74791;SDS011;63319;46.046;17.802;2022-11-04T01:22:40;30.42;;;16.40;;
74791;SDS011;63319;46.046;17.802;2022-11-04T01:25:44;36.88;;;18.98;;
74791;SDS011;63319;46.046;17.802;2022-11-04T01:28:47;29.98;;;15.95;;
74791;SDS011;63319;46.046;17.802;2022-11-04T01:31:50;34.17;;;16.90;;
74791;SDS011;63319;46.046;17.802;2022-11-04T01:34:54;30.98;;;16.55;;
74791;SDS011;63319;46.046;17.802;2022-11-04T01:37:57;34.00;;;16.90;;
74791;SDS011;63319;46.046;17.802;2022-11-04T01:41:00;33.10;;;17.25;;
74791;SDS011;63319;46.046;17.802;2022-11-04T01:44:43;31.27;;;15.60;;
74791;SDS011;63319;46.046;17.802;2022-11-04T01:47:47;34.50;;;17.30;;
74791;SDS011;63319;46.046;17.802;2022-11-04T01:50:54;32.13;;;17.23;;
74791;SDS011;63319;46.046;17.802;2022-11-04T01:53:57;34.78;;;16.48;;
74791;SDS011;63319;46.046;17.802;2022-11-04T01:57:00;30.80;;;16.27;;
74791;SDS011;63319;46.046;17.802;2022-11-04T02:00:05;36.67;;;17.75;;
74791;SDS011;63319;46.046;17.802;2022-11-04T02:03:19;28.50;;;14.57;;
74791;SDS011;63319;46.046;17.802;2022-11-04T02:06:27;31.00;;;15.75;;
74791;SDS011;63319;46.046;17.802;2022-11-04T02:09:30;34.55;;;18.45;;
74791;SDS011;63319;46.046;17.802;2022-11-04T02:12:34;32.13;;;15.50;;
74791;SDS011;63319;46.046;17.802;2022-11-04T02:36:09;33.97;;;16.20;;
74791;SDS011;63319;46.046;17.802;2022-11-04T02:39:21;32.92;;;16.27;;
74791;SDS011;63319;46.046;17.802;2022-11-04T02:42:39;33.22;;;17.25;;
74791;SDS011;63319;46.046;17.802;2022-11-04T02:46:05;33.95;;;17.88;;
74791;SDS011;63319;46.046;17.802;2022-11-04T02:49:32;27.85;;;15.48;;
74791;SDS011;63319;46.046;17.802;2022-11-04T02:55:53;29.33;;;16.00;;
74791;SDS011;63319;46.046;17.802;2022-11-04T02:59:02;33.17;;;16.13;;
74791;SDS011;63319;46.046;17.802;2022-11-04T03:02:09;31.55;;;15.70;;
74791;SDS011;63319;46.046;17.802;2022-11-04T03:05:19;30.02;;;17.00;;
74791;SDS011;63319;46.046;17.802;2022-11-04T03:08:34;34.10;;;16.80;;
74791;SDS011;63319;46.046;17.802;2022-11-04T03:11:43;30.42;;;15.98;;
74791;SDS011;63319;46.046;17.802;2022-11-04T03:14:57;28.40;;;15.98;;
74791;SDS011;63319;46.046;17.802;2022-11-04T03:21:34;31.55;;;16.20;;
74791;SDS011;63319;46.046;17.802;2022-11-04T03:24:42;30.77;;;16.53;;
74791;SDS011;63319;46.046;17.802;2022-11-04T03:27:56;29.77;;;15.73;;
74791;SDS011;63319;46.046;17.802;2022-11-04T03:31:28;29.73;;;16.48;;
74791;SDS011;63319;46.046;17.802;2022-11-04T03:34:41;30.90;;;15.63;;
74791;SDS011;63319;46.046;17.802;2022-11-04T03:37:44;31.67;;;15.90;;
74791;SDS011;63319;46.046;17.802;2022-11-04T03:40:49;30.13;;;15.57;;
74791;SDS011;63319;46.046;17.802;2022-11-04T03:43:52;32.75;;;16.25;;
74791;SDS011;63319;46.046;17.802;2022-11-04T03:46:55;30.60;;;16.25;;
74791;SDS011;63319;46.046;17.802;2022-11-04T03:50:12;26.92;;;15.52;;
74791;SDS011;63319;46.046;17.802;2022-11-04T03:53:21;27.38;;;15.35;;
74791;SDS011;63319;46.046;17.802;2022-11-04T03:56:31;30.13;;;15.90;;
74791;SDS011;63319;46.046;17.802;2022-11-04T04:06:09;28.60;;;15.68;;
74791;SDS011;63319;46.046;17.802;2022-11-04T04:09:18;27.92;;;14.68;;
74791;SDS011;63319;46.046;17.802;2022-11-04T04:12:35;29.53;;;15.37;;
74791;SDS011;63319;46.046;17.802;2022-11-04T04:15:42;28.40;;;16.02;;
74791;SDS011;63319;46.046;17.802;2022-11-04T04:18:53;30.30;;;16.38;;
74791;SDS011;63319;46.046;17.802;2022-11-04T04:22:07;31.02;;;15.68;;
74791;SDS011;63319;46.046;17.802;2022-11-04T04:25:15;27.88;;;15.93;;
74791;SDS011;63319;46.046;17.802;2022-11-04T04:28:37;27.93;;;15.40;;
74791;SDS011;63319;46.046;17.802;2022-11-04T04:31:41;28.08;;;14.10;;
74791;SDS011;63319;46.046;17.802;2022-11-04T04:35:03;26.27;;;14.82;;
74791;SDS011;63319;46.046;17.802;2022-11-04T04:38:28;28.42;;;15.20;;
74791;SDS011;63319;46.046;17.802;2022-11-04T04:41:49;27.50;;;15.23;;
74791;SDS011;63319;46.046;17.802;2022-11-04T04:45:17;28.73;;;14.97;;
74791;SDS011;63319;46.046;17.802;2022-11-04T04:48:23;25.90;;;14.43;;
74791;SDS011;63319;46.046;17.802;2022-11-04T04:51:26;29.33;;;15.85;;
74791;SDS011;63319;46.046;17.802;2022-11-04T04:54:28;25.45;;;13.70;;
74791;SDS011;63319;46.046;17.802;2022-11-04T04:57:31;26.85;;;15.20;;
74791;SDS011;63319;46.046;17.802;2022-11-04T05:00:34;25.07;;;13.33;;
74791;SDS011;63319;46.046;17.802;2022-11-04T05:03:37;25.35;;;13.60;;
74791;SDS011;63319;46.046;17.802;2022-11-04T05:06:46;26.95;;;14.50;;
74791;SDS011;63319;46.046;17.802;2022-11-04T05:09:49;24.10;;;13.52;;
74791;SDS011;63319;46.046;17.802;2022-11-04T05:12:51;24.88;;;14.48;;
74791;SDS011;63319;46.046;17.802;2022-11-04T05:16:13;24.87;;;13.93;;
74791;SDS011;63319;46.046;17.802;2022-11-04T05:19:16;23.77;;;13.65;;
74791;SDS011;63319;46.046;17.802;2022-11-04T05:22:19;24.45;;;13.65;;
74791;SDS011;63319;46.046;17.802;2022-11-04T05:25:22;24.60;;;13.65;;
74791;SDS011;63319;46.046;17.802;2022-11-04T05:28:24;24.55;;;12.77;;
74791;SDS011;63319;46.046;17.802;2022-11-04T05:31:27;24.07;;;13.37;;
74791;SDS011;63319;46.046;17.802;2022-11-04T05:34:31;24.73;;;13.10;;
74791;SDS011;63319;46.046;17.802;2022-11-04T05:37:34;23.73;;;13.40;;
74791;SDS011;63319;46.046;17.802;2022-11-04T05:40:36;25.67;;;13.32;;
74791;SDS011;63319;46.046;17.802;2022-11-04T05:43:39;25.42;;;13.60;;
74791;SDS011;63319;46.046;17.802;2022-11-04T05:46:42;22.93;;;12.83;;
74791;SDS011;63319;46.046;17.802;2022-11-04T05:49:44;23.30;;;12.75;;
74791;SDS011;63319;46.046;17.802;2022-11-04T05:52:52;22.73;;;12.48;;
74791;SDS011;63319;46.046;17.802;2022-11-04T05:55:55;28.10;;;14.82;;
74791;SDS011;63319;46.046;17.802;2022-11-04T05:58:58;21.95;;;13.23;;
74791;SDS011;63319;46.046;17.802;2022-11-04T06:02:02;25.23;;;13.57;;
74791;SDS011;63319;46.046;17.802;2022-11-04T06:05:05;23.88;;;12.90;;
74791;SDS011;63319;46.046;17.802;2022-11-04T06:08:08;22.73;;;12.10;;
74791;SDS011;63319;46.046;17.802;2022-11-04T06:11:11;23.10;;;12.85;;
74791;SDS011;63319;46.046;17.802;2022-11-04T06:14:14;24.58;;;13.68;;
74791;SDS011;63319;46.046;17.802;2022-11-04T06:17:20;25.47;;;13.70;;
74791;SDS011;63319;46.046;17.802;2022-11-04T06:20:23;25.33;;;13.80;;
74791;SDS011;63319;46.046;17.802;2022-11-04T06:23:26;24.67;;;13.27;;
74791;SDS011;63319;46.046;17.802;2022-11-04T06:26:29;20.92;;;11.93;;
74791;SDS011;63319;46.046;17.802;2022-11-04T06:29:34;23.48;;;13.52;;
74791;SDS011;63319;46.046;17.802;2022-11-04T06:32:41;22.87;;;13.03;;
74791;SDS011;63319;46.046;17.802;2022-11-04T06:35:43;22.80;;;13.30;;
74791;SDS011;63319;46.046;17.802;2022-11-04T06:38:46;22.33;;;13.18;;
74791;SDS011;63319;46.046;17.802;2022-11-04T06:41:49;22.77;;;12.75;;
74791;SDS011;63319;46.046;17.802;2022-11-04T06:44:53;20.63;;;12.32;;
74791;SDS011;63319;46.046;17.802;2022-11-04T06:47:55;22.03;;;12.03;;
74791;SDS011;63319;46.046;17.802;2022-11-04T06:50:59;22.88;;;13.43;;
74791;SDS011;63319;46.046;17.802;2022-11-04T06:54:02;25.58;;;13.98;;
74791;SDS011;63319;46.046;17.802;2022-11-04T06:57:05;22.48;;;12.57;;
74791;SDS011;63319;46.046;17.802;2022-11-04T07:00:08;22.50;;;12.23;;
74791;SDS011;63319;46.046;17.802;2022-11-04T07:03:12;21.47;;;13.00;;
74791;SDS011;63319;46.046;17.802;2022-11-04T07:06:15;20.05;;;12.20;;
74791;SDS011;63319;46.046;17.802;2022-11-04T07:09:17;22.05;;;11.98;;
74791;SDS011;63319;46.046;17.802;2022-11-04T07:12:20;21.55;;;11.45;;
74791;SDS011;63319;46.046;17.802;2022-11-04T07:15:24;18.73;;;10.98;;
74791;SDS011;63319;46.046;17.802;2022-11-04T07:18:29;17.83;;;10.63;;
74791;SDS011;63319;46.046;17.802;2022-11-04T07:21:32;20.40;;;11.20;;
74791;SDS011;63319;46.046;17.802;2022-11-04T07:24:36;25.00;;;12.90;;
74791;SDS011;63319;46.046;17.802;2022-11-04T07:27:39;20.65;;;11.63;;
74791;SDS011;63319;46.046;17.802;2022-11-04T07:30:42;21.73;;;13.18;;
74791;SDS011;63319;46.046;17.802;2022-11-04T07:33:44;25.43;;;12.13;;
74791;SDS011;63319;46.046;17.802;2022-11-04T07:36:52;20.13;;;12.07;;
74791;SDS011;63319;46.046;17.802;2022-11-04T07:39:55;24.55;;;13.68;;
74791;SDS011;63319;46.046;17.802;2022-11-04T07:42:58;24.00;;;13.55;;
74791;SDS011;63319;46.046;17.802;2022-11-04T07:46:10;23.98;;;13.30;;
74791;SDS011;63319;46.046;17.802;2022-11-04T07:49:15;22.10;;;13.47;;
74791;SDS011;63319;46.046;17.802;2022-11-04T07:52:21;27.70;;;12.68;;
74791;SDS011;63319;46.046;17.802;2022-11-04T07:55:24;26.98;;;13.90;;
74791;SDS011;63319;46.046;17.802;2022-11-04T07:58:27;23.38;;;13.40;;
74791;SDS011;63319;46.046;17.802;2022-11-04T08:01:30;24.75;;;14.55;;
74791;SDS011;63319;46.046;17.802;2022-11-04T08:04:33;22.70;;;14.17;;
74791;SDS011;63319;46.046;17.802;2022-11-04T08:07:36;23.48;;;13.02;;
74791;SDS011;63319;46.046;17.802;2022-11-04T08:10:38;23.20;;;13.50;;
74791;SDS011;63319;46.046;17.802;2022-11-04T08:13:45;25.08;;;14.73;;
74791;SDS011;63319;46.046;17.802;2022-11-04T08:17:16;23.98;;;14.02;;
74791;SDS011;63319;46.046;17.802;2022-11-04T08:20:25;23.37;;;14.33;;
74791;SDS011;63319;46.046;17.802;2022-11-04T08:23:35;22.10;;;13.13;;
74791;SDS011;63319;46.046;17.802;2022-11-04T08:26:38;24.13;;;14.85;;
74791;SDS011;63319;46.046;17.802;2022-11-04T08:29:40;27.83;;;14.00;;
74791;SDS011;63319;46.046;17.802;2022-11-04T08:32:43;22.42;;;14.20;;
74791;SDS011;63319;46.046;17.802;2022-11-04T08:35:46;23.17;;;13.97;;
74791;SDS011;63319;46.046;17.802;2022-11-04T08:38:50;24.08;;;14.10;;
74791;SDS011;63319;46.046;17.802;2022-11-04T08:41:53;21.92;;;13.82;;
74791;SDS011;63319;46.046;17.802;2022-11-04T08:44:57;24.55;;;13.63;;
74791;SDS011;63319;46.046;17.802;2022-11-04T08:48:18;24.92;;;14.35;;
74791;SDS011;63319;46.046;17.802;2022-11-04T08:51:22;21.63;;;13.57;;
74791;SDS011;63319;46.046;17.802;2022-11-04T08:54:26;22.73;;;14.25;;
74791;SDS011;63319;46.046;17.802;2022-11-04T08:57:29;24.73;;;15.90;;
74791;SDS011;63319;46.046;17.802;2022-11-04T09:00:33;24.23;;;13.85;;
74791;SDS011;63319;46.046;17.802;2022-11-04T09:03:36;23.90;;;15.38;;
74791;SDS011;63319;46.046;17.802;2022-11-04T09:06:41;26.33;;;15.13;;
74791;SDS011;63319;46.046;17.802;2022-11-04T09:09:45;26.30;;;15.23;;
74791;SDS011;63319;46.046;17.802;2022-11-04T09:12:48;25.83;;;15.77;;
74791;SDS011;63319;46.046;17.802;2022-11-04T09:15:51;25.90;;;15.30;;
74791;SDS011;63319;46.046;17.802;2022-11-04T09:18:54;23.92;;;15.60;;
74791;SDS011;63319;46.046;17.802;2022-11-04T09:21:59;25.40;;;14.90;;
74791;SDS011;63319;46.046;17.802;2022-11-04T09:25:12;26.00;;;14.60;;
74791;SDS011;63319;46.046;17.802;2022-11-04T09:28:15;25.98;;;15.30;;
74791;SDS011;63319;46.046;17.802;2022-11-04T09:31:18;21.90;;;14.20;;
74791;SDS011;63319;46.046;17.802;2022-11-04T09:34:26;24.52;;;15.50;;
74791;SDS011;63319;46.046;17.802;2022-11-04T09:37:36;22.27;;;14.07;;
74791;SDS011;63319;46.046;17.802;2022-11-04T09:40:40;22.52;;;14.30;;
74791;SDS011;63319;46.046;17.802;2022-11-04T09:43:46;24.55;;;14.55;;
74791;SDS011;63319;46.046;17.802;2022-11-04T09:46:59;25.05;;;14.73;;
74791;SDS011;63319;46.046;17.802;2022-11-04T09:50:05;23.27;;;14.18;;
74791;SDS011;63319;46.046;17.802;2022-11-04T09:56:28;23.13;;;14.10;;
74791;SDS011;63319;46.046;17.802;2022-11-04T09:59:34;22.65;;;14.35;;
74791;SDS011;63319;46.046;17.802;2022-11-04T10:12:40;20.17;;;12.88;;
74791;SDS011;63319;46.046;17.802;2022-11-04T10:15:53;21.92;;;14.13;;
74791;SDS011;63319;46.046;17.802;2022-11-04T10:32:51;22.65;;;14.05;;
74791;SDS011;63319;46.046;17.802;2022-11-04T10:36:00;21.83;;;13.43;;
74791;SDS011;63319;46.046;17.802;2022-11-04T10:39:12;20.70;;;13.05;;
74791;SDS011;63319;46.046;17.802;2022-11-04T10:42:22;19.67;;;12.83;;
74791;SDS011;63319;46.046;17.802;2022-11-04T10:45:26;22.73;;;13.23;;
74791;SDS011;63319;46.046;17.802;2022-11-04T10:48:37;22.05;;;13.88;;
74791;SDS011;63319;46.046;17.802;2022-11-04T10:51:47;22.92;;;15.00;;
74791;SDS011;63319;46.046;17.802;2022-11-04T10:54:49;23.42;;;13.73;;
74791;SDS011;63319;46.046;17.802;2022-11-04T10:57:55;22.70;;;13.93;;
74791;SDS011;63319;46.046;17.802;2022-11-04T11:01:20;24.67;;;13.73;;
74791;SDS011;63319;46.046;17.802;2022-11-04T11:04:30;26.27;;;13.40;;
74791;SDS011;63319;46.046;17.802;2022-11-04T11:07:35;24.98;;;14.10;;
74791;SDS011;63319;46.046;17.802;2022-11-04T11:10:38;22.85;;;14.82;;
74791;SDS011;63319;46.046;17.802;2022-11-04T11:13:53;24.50;;;13.10;;
74791;SDS011;63319;46.046;17.802;2022-11-04T11:16:56;21.55;;;13.95;;
74791;SDS011;63319;46.046;17.802;2022-11-04T11:20:22;23.02;;;13.93;;
74791;SDS011;63319;46.046;17.802;2022-11-04T11:23:34;25.10;;;13.05;;
74791;SDS011;63319;46.046;17.802;2022-11-04T11:26:40;22.98;;;14.02;;
74791;SDS011;63319;46.046;17.802;2022-11-04T11:29:49;22.87;;;13.63;;
74791;SDS011;63319;46.046;17.802;2022-11-04T11:32:58;24.80;;;14.07;;
74791;SDS011;63319;46.046;17.802;2022-11-04T11:36:26;25.73;;;13.77;;
74791;SDS011;63319;46.046;17.802;2022-11-04T11:39:32;23.70;;;13.90;;
74791;SDS011;63319;46.046;17.802;2022-11-04T11:42:40;27.00;;;15.85;;
74791;SDS011;63319;46.046;17.802;2022-11-04T11:45:46;25.30;;;15.03;;
74791;SDS011;63319;46.046;17.802;2022-11-04T11:48:54;25.88;;;15.05;;
74791;SDS011;63319;46.046;17.802;2022-11-04T11:52:16;24.45;;;14.90;;
74791;SDS011;63319;46.046;17.802;2022-11-04T11:55:33;26.77;;;15.80;;
74791;SDS011;63319;46.046;17.802;2022-11-04T11:58:45;26.45;;;15.32;;
74791;SDS011;63319;46.046;17.802;2022-11-04T12:12:50;24.98;;;15.27;;
74791;SDS011;63319;46.046;17.802;2022-11-04T12:16:28;28.98;;;15.45;;
74791;SDS011;63319;46.046;17.802;2022-11-04T12:19:52;23.70;;;14.37;;
74791;SDS011;63319;46.046;17.802;2022-11-04T12:43:12;26.45;;;15.50;;
74791;SDS011;63319;46.046;17.802;2022-11-04T12:46:43;24.73;;;15.10;;
74791;SDS011;63319;46.046;17.802;2022-11-04T12:50:20;30.20;;;15.70;;
74791;SDS011;63319;46.046;17.802;2022-11-04T12:53:56;25.33;;;14.97;;
74791;SDS011;63319;46.046;17.802;2022-11-04T13:00:37;26.10;;;14.70;;
74791;SDS011;63319;46.046;17.802;2022-11-04T13:04:00;24.50;;;14.52;;
74791;SDS011;63319;46.046;17.802;2022-11-04T13:11:15;25.90;;;14.53;;
74791;SDS011;63319;46.046;17.802;2022-11-04T13:14:28;26.50;;;14.95;;
74791;SDS011;63319;46.046;17.802;2022-11-04T13:17:36;27.45;;;15.80;;
74791;SDS011;63319;46.046;17.802;2022-11-04T13:23:50;31.55;;;18.20;;
74791;SDS011;63319;46.046;17.802;2022-11-04T13:30:51;30.50;;;16.75;;
74791;SDS011;63319;46.046;17.802;2022-11-04T13:34:07;34.25;;;17.80;;
74791;SDS011;63319;46.046;17.802;2022-11-04T13:37:28;33.78;;;17.92;;
74791;SDS011;63319;46.046;17.802;2022-11-04T13:40:58;39.70;;;18.65;;
74791;SDS011;63319;46.046;17.802;2022-11-04T13:44:19;32.50;;;17.53;;
74791;SDS011;63319;46.046;17.802;2022-11-04T13:47:32;34.83;;;18.65;;
74791;SDS011;63319;46.046;17.802;2022-11-04T13:50:38;33.35;;;17.77;;
74791;SDS011;63319;46.046;17.802;2022-11-04T13:57:05;31.63;;;17.92;;
74791;SDS011;63319;46.046;17.802;2022-11-04T14:00:26;33.33;;;18.37;;
74791;SDS011;63319;46.046;17.802;2022-11-04T14:06:49;32.58;;;18.15;;
74791;SDS011;63319;46.046;17.802;2022-11-04T14:10:30;30.55;;;18.00;;
74791;SDS011;63319;46.046;17.802;2022-11-04T14:13:45;32.42;;;18.38;;
74791;SDS011;63319;46.046;17.802;2022-11-04T14:16:48;30.20;;;17.80;;
74791;SDS011;63319;46.046;17.802;2022-11-04T14:22:59;29.65;;;16.80;;
74791;SDS011;63319;46.046;17.802;2022-11-04T14:26:05;32.13;;;17.92;;
74791;SDS011;63319;46.046;17.802;2022-11-04T14:29:22;27.83;;;17.33;;
74791;SDS011;63319;46.046;17.802;2022-11-04T14:32:35;30.70;;;17.00;;
74791;SDS011;63319;46.046;17.802;2022-11-04T14:35:46;30.98;;;16.65;;
74791;SDS011;63319;46.046;17.802;2022-11-04T14:41:58;29.15;;;16.15;;
74791;SDS011;63319;46.046;17.802;2022-11-04T14:45:03;26.35;;;16.27;;
74791;SDS011;63319;46.046;17.802;2022-11-04T14:48:11;28.10;;;15.10;;
74791;SDS011;63319;46.046;17.802;2022-11-04T14:51:30;28.90;;;15.65;;
74791;SDS011;63319;46.046;17.802;2022-11-04T14:54:41;25.95;;;15.45;;
74791;SDS011;63319;46.046;17.802;2022-11-04T14:57:48;25.92;;;15.50;;
74791;SDS011;63319;46.046;17.802;2022-11-04T15:01:00;27.27;;;15.95;;
74791;SDS011;63319;46.046;17.802;2022-11-04T15:04:05;27.40;;;15.83;;
74791;SDS011;63319;46.046;17.802;2022-11-04T15:07:23;32.15;;;15.85;;
74791;SDS011;63319;46.046;17.802;2022-11-04T15:10:32;26.13;;;15.85;;
74791;SDS011;63319;46.046;17.802;2022-11-04T15:13:35;25.77;;;15.48;;
74791;SDS011;63319;46.046;17.802;2022-11-04T15:16:39;27.88;;;15.48;;
74791;SDS011;63319;46.046;17.802;2022-11-04T15:19:46;24.13;;;14.73;;
74791;SDS011;63319;46.046;17.802;2022-11-04T15:22:52;29.75;;;17.50;;
74791;SDS011;63319;46.046;17.802;2022-11-04T15:25:57;27.45;;;15.68;;
74791;SDS011;63319;46.046;17.802;2022-11-04T15:29:02;28.52;;;15.88;;
74791;SDS011;63319;46.046;17.802;2022-11-04T15:32:14;27.15;;;15.95;;
74791;SDS011;63319;46.046;17.802;2022-11-04T15:35:18;27.87;;;15.13;;
74791;SDS011;63319;46.046;17.802;2022-11-04T15:38:22;22.65;;;14.35;;
74791;SDS011;63319;46.046;17.802;2022-11-04T15:41:27;28.65;;;15.50;;
74791;SDS011;63319;46.046;17.802;2022-11-04T15:44:52;26.38;;;15.43;;
74791;SDS011;63319;46.046;17.802;2022-11-04T15:51:24;24.57;;;14.80;;
74791;SDS011;63319;46.046;17.802;2022-11-04T15:54:34;27.02;;;14.27;;
74791;SDS011;63319;46.046;17.802;2022-11-04T15:57:39;25.80;;;15.52;;
74791;SDS011;63319;46.046;17.802;2022-11-04T16:00:42;28.05;;;14.93;;
74791;SDS011;63319;46.046;17.802;2022-11-04T16:03:55;28.02;;;17.48;;
74791;SDS011;63319;46.046;17.802;2022-11-04T16:13:44;25.52;;;14.82;;
74791;SDS011;63319;46.046;17.802;2022-11-04T16:16:55;26.35;;;14.48;;
74791;SDS011;63319;46.046;17.802;2022-11-04T16:20:03;27.33;;;15.38;;
74791;SDS011;63319;46.046;17.802;2022-11-04T16:23:16;26.37;;;16.07;;
74791;SDS011;63319;46.046;17.802;2022-11-04T16:26:24;22.08;;;14.18;;
74791;SDS011;63319;46.046;17.802;2022-11-04T16:29:31;23.75;;;15.00;;
74791;SDS011;63319;46.046;17.802;2022-11-04T16:32:44;23.02;;;13.82;;
74791;SDS011;63319;46.046;17.802;2022-11-04T16:35:50;26.58;;;15.38;;
74791;SDS011;63319;46.046;17.802;2022-11-04T16:38:57;26.37;;;14.47;;
74791;SDS011;63319;46.046;17.802;2022-11-04T16:42:01;23.27;;;14.15;;
74791;SDS011;63319;46.046;17.802;2022-11-04T16:45:05;24.58;;;14.63;;
74791;SDS011;63319;46.046;17.802;2022-11-04T16:48:13;23.02;;;14.45;;
74791;SDS011;63319;46.046;17.802;2022-11-04T16:51:21;24.48;;;14.98;;
74791;SDS011;63319;46.046;17.802;2022-11-04T16:54:25;24.37;;;14.20;;
74791;SDS011;63319;46.046;17.802;2022-11-04T16:57:29;25.15;;;14.60;;
74791;SDS011;63319;46.046;17.802;2022-11-04T17:00:35;22.77;;;13.85;;
74791;SDS011;63319;46.046;17.802;2022-11-04T17:03:42;21.70;;;13.45;;
74791;SDS011;63319;46.046;17.802;2022-11-04T17:06:46;22.95;;;13.90;;
74791;SDS011;63319;46.046;17.802;2022-11-04T17:09:50;21.07;;;12.67;;
74791;SDS011;63319;46.046;17.802;2022-11-04T17:12:53;23.05;;;14.88;;
74791;SDS011;63319;46.046;17.802;2022-11-04T17:15:57;22.30;;;13.90;;
74791;SDS011;63319;46.046;17.802;2022-11-04T17:19:03;20.90;;;12.80;;
74791;SDS011;63319;46.046;17.802;2022-11-04T17:22:08;23.67;;;14.75;;
74791;SDS011;63319;46.046;17.802;2022-11-04T17:25:20;24.47;;;14.13;;
74791;SDS011;63319;46.046;17.802;2022-11-04T17:28:27;22.77;;;13.95;;
74791;SDS011;63319;46.046;17.802;2022-11-04T17:31:34;22.52;;;13.98;;
74791;SDS011;63319;46.046;17.802;2022-11-04T17:34:38;26.13;;;14.40;;
74791;SDS011;63319;46.046;17.802;2022-11-04T17:37:43;24.10;;;14.57;;
74791;SDS011;63319;46.046;17.802;2022-11-04T17:40:46;22.17;;;13.80;;
74791;SDS011;63319;46.046;17.802;2022-11-04T17:44:10;23.02;;;14.27;;
74791;SDS011;63319;46.046;17.802;2022-11-04T17:47:18;23.27;;;13.90;;
74791;SDS011;63319;46.046;17.802;2022-11-04T17:50:21;22.55;;;13.65;;
74791;SDS011;63319;46.046;17.802;2022-11-04T17:53:25;22.80;;;14.43;;
74791;SDS011;63319;46.046;17.802;2022-11-04T17:56:28;23.20;;;13.40;;
74791;SDS011;63319;46.046;17.802;2022-11-04T17:59:33;21.63;;;13.98;;
74791;SDS011;63319;46.046;17.802;2022-11-04T18:02:40;26.08;;;14.90;;
74791;SDS011;63319;46.046;17.802;2022-11-04T18:05:44;23.33;;;13.70;;
74791;SDS011;63319;46.046;17.802;2022-11-04T18:08:48;22.42;;;13.50;;
74791;SDS011;63319;46.046;17.802;2022-11-04T18:11:57;19.47;;;12.83;;
74791;SDS011;63319;46.046;17.802;2022-11-04T18:15:20;22.33;;;14.20;;
74791;SDS011;63319;46.046;17.802;2022-11-04T18:18:23;20.85;;;13.80;;
74791;SDS011;63319;46.046;17.802;2022-11-04T18:21:27;22.63;;;13.60;;
74791;SDS011;63319;46.046;17.802;2022-11-04T18:24:32;22.30;;;13.88;;
74791;SDS011;63319;46.046;17.802;2022-11-04T18:27:36;21.13;;;13.50;;
74791;SDS011;63319;46.046;17.802;2022-11-04T18:30:59;20.33;;;12.98;;
74791;SDS011;63319;46.046;17.802;2022-11-04T18:34:04;22.95;;;12.82;;
74791;SDS011;63319;46.046;17.802;2022-11-04T18:37:10;21.52;;;13.30;;
74791;SDS011;63319;46.046;17.802;2022-11-04T18:40:32;21.33;;;13.43;;
74791;SDS011;63319;46.046;17.802;2022-11-04T18:43:42;23.30;;;13.77;;
74791;SDS011;63319;46.046;17.802;2022-11-04T18:46:54;22.23;;;13.40;;
74791;SDS011;63319;46.046;17.802;2022-11-04T18:49:58;21.15;;;13.38;;
74791;SDS011;63319;46.046;17.802;2022-11-04T18:53:07;19.90;;;12.30;;
74791;SDS011;63319;46.046;17.802;2022-11-04T18:56:13;21.63;;;12.90;;
74791;SDS011;63319;46.046;17.802;2022-11-04T18:59:18;22.23;;;13.47;;
74791;SDS011;63319;46.046;17.802;2022-11-04T19:02:22;21.02;;;12.30;;
74791;SDS011;63319;46.046;17.802;2022-11-04T19:05:26;20.08;;;13.18;;
74791;SDS011;63319;46.046;17.802;2022-11-04T19:08:30;21.05;;;12.93;;
74791;SDS011;63319;46.046;17.802;2022-11-04T19:11:36;21.83;;;13.15;;
74791;SDS011;63319;46.046;17.802;2022-11-04T19:14:41;20.93;;;12.90;;
74791;SDS011;63319;46.046;17.802;2022-11-04T19:17:45;21.20;;;13.23;;
74791;SDS011;63319;46.046;17.802;2022-11-04T19:20:49;20.52;;;12.52;;
74791;SDS011;63319;46.046;17.802;2022-11-04T19:23:54;19.52;;;12.40;;
74791;SDS011;63319;46.046;17.802;2022-11-04T19:27:02;21.85;;;13.75;;
74791;SDS011;63319;46.046;17.802;2022-11-04T19:30:07;21.80;;;13.40;;
74791;SDS011;63319;46.046;17.802;2022-11-04T19:33:11;22.05;;;12.15;;
74791;SDS011;63319;46.046;17.802;2022-11-04T19:36:15;20.58;;;14.07;;
74791;SDS011;63319;46.046;17.802;2022-11-04T19:39:23;23.33;;;13.20;;
74791;SDS011;63319;46.046;17.802;2022-11-04T19:42:27;20.63;;;13.05;;
74791;SDS011;63319;46.046;17.802;2022-11-04T19:45:49;19.70;;;12.73;;
74791;SDS011;63319;46.046;17.802;2022-11-04T19:48:55;19.40;;;12.15;;
74791;SDS011;63319;46.046;17.802;2022-11-04T19:52:02;19.75;;;12.80;;
74791;SDS011;63319;46.046;17.802;2022-11-04T19:55:07;20.05;;;12.57;;
74791;SDS011;63319;46.046;17.802;2022-11-04T19:58:13;22.02;;;12.95;;
74791;SDS011;63319;46.046;17.802;2022-11-04T20:01:20;19.27;;;12.37;;
74791;SDS011;63319;46.046;17.802;2022-11-04T20:04:24;19.63;;;12.23;;
74791;SDS011;63319;46.046;17.802;2022-11-04T20:07:29;19.63;;;12.82;;
74791;SDS011;63319;46.046;17.802;2022-11-04T20:10:35;21.25;;;12.48;;
74791;SDS011;63319;46.046;17.802;2022-11-04T20:13:40;20.35;;;12.63;;